createdAt,value
2023-02-11T00:00:07.920Z,2.85
2023-02-11T00:00:40.587Z,2.84
2023-02-11T00:01:13.248Z,2.84
2023-02-11T00:01:45.916Z,2.84
2023-02-11T00:02:18.681Z,2.84
2023-02-11T00:02:51.344Z,2.81
2023-02-11T00:03:24.151Z,2.84
2023-02-11T00:03:56.820Z,2.82
2023-02-11T00:04:29.527Z,2.84
2023-02-11T00:05:02.227Z,2.85
2023-02-11T00:05:34.884Z,2.85
2023-02-11T00:06:07.559Z,2.84
2023-02-11T00:06:40.257Z,2.85
2023-02-11T00:07:12.913Z,2.85
2023-02-11T00:07:45.581Z,2.85
2023-02-11T00:08:18.250Z,2.87
2023-02-11T00:08:50.924Z,2.89
2023-02-11T00:09:23.597Z,2.89
2023-02-11T00:09:56.295Z,2.89
2023-02-11T00:10:28.952Z,2.89
2023-02-11T00:11:01.622Z,2.90
2023-02-11T00:11:34.284Z,2.89
2023-02-11T00:12:06.957Z,2.89
2023-02-11T00:12:39.832Z,2.89
2023-02-11T00:13:12.504Z,2.90
2023-02-11T00:13:45.182Z,2.89
2023-02-11T00:14:17.845Z,2.89
2023-02-11T00:14:50.551Z,2.89
2023-02-11T00:15:23.221Z,2.89
2023-02-11T00:15:55.897Z,2.87
2023-02-11T00:16:28.655Z,2.89
2023-02-11T00:17:01.339Z,2.90
2023-02-11T00:17:34.020Z,2.90
2023-02-11T00:18:06.677Z,2.92
2023-02-11T00:18:39.351Z,2.92
2023-02-11T00:19:12.032Z,2.90
2023-02-11T00:19:44.712Z,2.90
2023-02-11T00:20:17.374Z,2.89
2023-02-11T00:20:50.057Z,2.90
2023-02-11T00:21:22.740Z,2.90
2023-02-11T00:21:55.428Z,2.89
2023-02-11T00:22:28.101Z,2.89
2023-02-11T00:23:00.785Z,2.87
2023-02-11T00:23:33.452Z,2.87
2023-02-11T00:24:06.125Z,2.85
2023-02-11T00:24:38.803Z,2.87
2023-02-11T00:25:11.530Z,2.84
2023-02-11T00:25:44.187Z,2.87
2023-02-11T00:26:16.842Z,2.85
2023-02-11T00:26:49.510Z,2.85
2023-02-11T00:27:22.186Z,2.85
2023-02-11T00:27:54.882Z,2.85
2023-02-11T00:28:27.663Z,2.85
2023-02-11T00:29:00.313Z,2.85
2023-02-11T00:29:32.980Z,2.85
2023-02-11T00:30:05.668Z,2.85
2023-02-11T00:30:38.514Z,2.87
2023-02-11T00:31:11.363Z,2.87
2023-02-11T00:31:44.316Z,2.87
2023-02-11T00:32:17.021Z,2.87
2023-02-11T00:32:49.706Z,2.89
2023-02-11T00:33:22.360Z,2.87
2023-02-11T00:33:55.043Z,2.87
2023-02-11T00:34:27.707Z,2.89
2023-02-11T00:35:00.410Z,2.89
2023-02-11T00:35:33.070Z,2.87
2023-02-11T00:36:05.752Z,2.90
2023-02-11T00:36:38.392Z,2.89
2023-02-11T00:37:11.087Z,2.89
2023-02-11T00:37:43.777Z,2.90
2023-02-11T00:38:16.459Z,2.90
2023-02-11T00:38:49.129Z,2.89
2023-02-11T00:39:21.805Z,2.90
2023-02-11T00:39:54.485Z,2.92
2023-02-11T00:40:27.194Z,2.89
2023-02-11T00:40:59.859Z,2.89
2023-02-11T00:41:32.538Z,2.90
2023-02-11T00:42:05.216Z,2.90
2023-02-11T00:42:37.886Z,2.89
2023-02-11T00:43:10.563Z,2.89
2023-02-11T00:43:43.227Z,2.90
2023-02-11T00:44:15.901Z,2.89
2023-02-11T00:44:48.588Z,2.89
2023-02-11T00:45:21.396Z,2.89
2023-02-11T00:45:54.129Z,2.89
2023-02-11T00:46:26.930Z,2.87
2023-02-11T00:46:59.590Z,2.89
2023-02-11T00:47:32.259Z,2.89
2023-02-11T00:48:04.930Z,2.89
2023-02-11T00:48:37.615Z,2.90
2023-02-11T00:49:10.279Z,2.89
2023-02-11T00:49:42.969Z,2.90
2023-02-11T00:50:14.098Z,2.90
2023-02-11T00:50:46.751Z,2.89
2023-02-11T00:51:19.424Z,2.92
2023-02-11T00:51:52.093Z,2.90
2023-02-11T00:52:24.765Z,2.90
2023-02-11T00:52:57.429Z,2.90
2023-02-11T00:53:30.093Z,2.90
2023-02-11T00:54:02.763Z,2.92
2023-02-11T00:54:35.432Z,2.92
2023-02-11T00:55:08.108Z,2.93
2023-02-11T00:55:40.776Z,2.93
2023-02-11T00:56:13.457Z,2.95
2023-02-11T00:56:46.132Z,2.96
2023-02-11T00:57:18.815Z,2.95
2023-02-11T00:57:51.478Z,2.97
2023-02-11T00:58:24.162Z,2.97
2023-02-11T00:58:56.832Z,2.96
2023-02-11T00:59:29.510Z,2.97
2023-02-11T01:00:02.187Z,2.97
2023-02-11T01:00:34.869Z,2.96
2023-02-11T01:01:07.633Z,2.96
2023-02-11T01:01:40.343Z,2.96
2023-02-11T01:02:13.007Z,2.96
2023-02-11T01:02:45.675Z,2.96
2023-02-11T01:03:18.367Z,2.95
2023-02-11T01:03:51.054Z,2.96
2023-02-11T01:04:23.724Z,2.96
2023-02-11T01:04:56.492Z,2.97
2023-02-11T01:05:29.282Z,2.96
2023-02-11T01:06:01.922Z,2.96
2023-02-11T01:06:34.587Z,2.97
2023-02-11T01:07:07.256Z,2.97
2023-02-11T01:07:39.919Z,2.96
2023-02-11T01:08:12.582Z,2.97
2023-02-11T01:08:45.277Z,2.99
2023-02-11T01:09:17.924Z,2.99
2023-02-11T01:09:50.598Z,2.97
2023-02-11T01:10:23.297Z,3.00
2023-02-11T01:10:55.952Z,2.99
2023-02-11T01:11:28.641Z,2.97
2023-02-11T01:12:01.306Z,2.99
2023-02-11T01:12:36.251Z,2.99
2023-02-11T01:13:02.692Z,3.00
2023-02-11T01:13:35.353Z,3.00
2023-02-11T01:14:08.030Z,2.99
2023-02-11T01:14:40.702Z,3.00
2023-02-11T01:15:13.382Z,3.02
2023-02-11T01:15:46.131Z,3.03
2023-02-11T01:16:18.961Z,3.02
2023-02-11T01:16:51.646Z,3.03
2023-02-11T01:17:24.375Z,3.02
2023-02-11T01:17:57.011Z,3.02
2023-02-11T01:18:29.679Z,3.06
2023-02-11T01:19:02.356Z,3.03
2023-02-11T01:19:35.039Z,3.02
2023-02-11T01:20:07.701Z,3.05
2023-02-11T01:20:40.408Z,3.03
2023-02-11T01:21:13.077Z,3.06
2023-02-11T01:21:45.719Z,3.06
2023-02-11T01:22:18.384Z,3.08
2023-02-11T01:22:51.058Z,3.08
2023-02-11T01:23:23.734Z,3.08
2023-02-11T01:23:56.405Z,3.08
2023-02-11T01:24:29.086Z,3.10
2023-02-11T01:25:01.743Z,3.06
2023-02-11T01:25:34.418Z,3.08
2023-02-11T01:26:07.091Z,3.10
2023-02-11T01:26:39.773Z,3.06
2023-02-11T01:27:12.430Z,3.10
2023-02-11T01:27:45.096Z,3.08
2023-02-11T01:28:17.837Z,3.06
2023-02-11T01:28:50.515Z,3.10
2023-02-11T01:29:23.187Z,3.10
2023-02-11T01:29:55.855Z,3.10
2023-02-11T01:30:28.548Z,3.11
2023-02-11T01:31:01.281Z,3.13
2023-02-11T01:31:34.103Z,3.14
2023-02-11T01:32:06.839Z,3.11
2023-02-11T01:32:39.523Z,3.13
2023-02-11T01:33:12.188Z,3.13
2023-02-11T01:33:44.878Z,3.14
2023-02-11T01:34:17.549Z,3.14
2023-02-11T01:34:50.238Z,3.14
2023-02-11T01:35:22.918Z,3.15
2023-02-11T01:35:55.628Z,3.15
2023-02-11T01:36:28.289Z,3.15
2023-02-11T01:37:00.992Z,3.17
2023-02-11T01:37:33.681Z,3.14
2023-02-11T01:38:06.352Z,3.15
2023-02-11T01:38:39.024Z,3.14
2023-02-11T01:39:11.684Z,3.15
2023-02-11T01:39:39.511Z,3.15
2023-02-11T01:40:07.191Z,3.17
2023-02-11T01:40:37.194Z,3.17
2023-02-11T01:41:14.724Z,3.17
2023-02-11T01:41:35.330Z,3.17
2023-02-11T01:42:07.997Z,3.18
2023-02-11T01:42:40.671Z,3.18
2023-02-11T01:43:09.124Z,3.20
2023-02-11T01:43:43.203Z,3.18
2023-02-11T01:44:10.193Z,3.18
2023-02-11T01:44:36.424Z,3.20
2023-02-11T01:45:09.100Z,3.18
2023-02-11T01:45:37.210Z,3.18
2023-02-11T01:46:04.361Z,3.20
2023-02-11T01:46:31.866Z,3.18
2023-02-11T01:47:04.553Z,3.20
2023-02-11T01:47:38.219Z,3.20
2023-02-11T01:48:05.348Z,3.20
2023-02-11T01:48:38.034Z,3.21
2023-02-11T01:49:05.336Z,3.20
2023-02-11T01:49:38.158Z,3.23
2023-02-11T01:50:06.979Z,3.21
2023-02-11T01:50:35.742Z,3.21
2023-02-11T01:51:04.221Z,3.21
2023-02-11T01:51:30.359Z,3.20
2023-02-11T01:52:03.693Z,3.21
2023-02-11T01:52:29.899Z,3.23
2023-02-11T01:53:02.570Z,3.21
2023-02-11T01:53:35.229Z,3.21
2023-02-11T01:54:07.905Z,3.21
2023-02-11T01:54:40.564Z,3.21
2023-02-11T01:55:13.243Z,3.21
2023-02-11T01:55:45.924Z,3.23
2023-02-11T01:56:18.623Z,3.24
2023-02-11T01:56:51.310Z,3.24
2023-02-11T01:57:23.980Z,3.24
2023-02-11T01:57:56.662Z,3.26
2023-02-11T01:58:29.344Z,3.26
2023-02-11T01:59:01.993Z,3.26
2023-02-11T01:59:34.669Z,3.28
2023-02-11T02:00:07.322Z,3.26
2023-02-11T02:00:39.997Z,3.26
2023-02-11T02:01:12.724Z,3.28
2023-02-11T02:01:45.424Z,3.28
2023-02-11T02:02:16.493Z,3.29
2023-02-11T02:02:49.173Z,3.28
2023-02-11T02:03:21.858Z,3.29
2023-02-11T02:03:54.635Z,3.29
2023-02-11T02:04:27.280Z,3.28
2023-02-11T02:04:59.943Z,3.29
2023-02-11T02:05:32.622Z,3.31
2023-02-11T02:06:05.302Z,3.29
2023-02-11T02:06:37.984Z,3.29
2023-02-11T02:07:10.643Z,3.31
2023-02-11T02:07:43.321Z,3.31
2023-02-11T02:08:15.988Z,3.31
2023-02-11T02:08:48.662Z,3.32
2023-02-11T02:09:21.336Z,3.31
2023-02-11T02:09:54.005Z,3.32
2023-02-11T02:10:26.680Z,3.31
2023-02-11T02:10:59.366Z,3.32
2023-02-11T02:11:32.035Z,3.32
2023-02-11T02:12:04.718Z,3.33
2023-02-11T02:12:37.426Z,3.32
2023-02-11T02:13:10.090Z,3.33
2023-02-11T02:13:42.768Z,3.35
2023-02-11T02:14:15.450Z,3.35
2023-02-11T02:14:48.131Z,3.36
2023-02-11T02:15:20.799Z,3.39
2023-02-11T02:15:53.820Z,3.39
2023-02-11T02:16:24.581Z,3.39
2023-02-11T02:16:57.223Z,3.36
2023-02-11T02:17:29.926Z,3.36
2023-02-11T02:18:02.595Z,3.40
2023-02-11T02:18:35.259Z,3.39
2023-02-11T02:19:07.943Z,3.40
2023-02-11T02:19:40.604Z,3.40
2023-02-11T02:20:13.259Z,3.40
2023-02-11T02:20:45.932Z,3.39
2023-02-11T02:21:18.617Z,3.42
2023-02-11T02:21:51.312Z,3.40
2023-02-11T02:22:23.959Z,3.42
2023-02-11T02:22:56.643Z,3.40
2023-02-11T02:23:29.319Z,3.43
2023-02-11T02:24:01.980Z,3.42
2023-02-11T02:24:34.655Z,3.42
2023-02-11T02:25:07.310Z,3.43
2023-02-11T02:25:39.990Z,3.43
2023-02-11T02:26:12.656Z,3.43
2023-02-11T02:26:45.359Z,3.43
2023-02-11T02:27:18.022Z,3.45
2023-02-11T02:27:50.686Z,3.43
2023-02-11T02:28:23.391Z,3.47
2023-02-11T02:28:56.055Z,3.45
2023-02-11T02:29:28.729Z,3.45
2023-02-11T02:30:01.402Z,3.45
2023-02-11T02:30:34.104Z,3.45
2023-02-11T02:31:06.876Z,3.47
2023-02-11T02:31:39.578Z,3.47
2023-02-11T02:32:12.234Z,3.47
2023-02-11T02:32:44.917Z,3.47
2023-02-11T02:33:23.515Z,3.45
2023-02-11T02:33:49.696Z,3.45
2023-02-11T02:34:15.864Z,3.47
2023-02-11T02:34:48.530Z,3.45
2023-02-11T02:35:21.199Z,3.45
2023-02-11T02:35:53.865Z,3.47
2023-02-11T02:36:26.530Z,3.45
2023-02-11T02:36:59.214Z,3.43
2023-02-11T02:37:31.856Z,3.45
2023-02-11T02:38:04.529Z,3.45
2023-02-11T02:38:37.208Z,3.43
2023-02-11T02:39:09.875Z,3.45
2023-02-11T02:39:42.548Z,3.43
2023-02-11T02:40:15.244Z,3.47
2023-02-11T02:40:47.945Z,3.47
2023-02-11T02:41:20.573Z,3.47
2023-02-11T02:41:53.243Z,3.48
2023-02-11T02:42:25.909Z,3.48
2023-02-11T02:42:58.577Z,3.48
2023-02-11T02:43:31.251Z,3.50
2023-02-11T02:44:03.939Z,3.51
2023-02-11T02:44:35.031Z,3.50
2023-02-11T02:45:07.706Z,3.50
2023-02-11T02:45:40.377Z,3.50
2023-02-11T02:46:13.107Z,3.50
2023-02-11T02:46:45.815Z,3.48
2023-02-11T02:47:18.475Z,3.48
2023-02-11T02:47:51.151Z,3.48
2023-02-11T02:48:23.833Z,3.48
2023-02-11T02:48:56.515Z,3.47
2023-02-11T02:49:29.185Z,3.45
2023-02-11T02:50:01.875Z,3.47
2023-02-11T02:50:34.572Z,3.48
2023-02-11T02:51:05.647Z,3.48
2023-02-11T02:51:38.313Z,3.48
2023-02-11T02:52:11.022Z,3.48
2023-02-11T02:52:43.659Z,3.47
2023-02-11T02:53:16.337Z,3.48
2023-02-11T02:53:49.043Z,3.50
2023-02-11T02:54:21.690Z,3.50
2023-02-11T02:54:54.355Z,3.47
2023-02-11T02:55:27.031Z,3.48
2023-02-11T02:55:59.712Z,3.47
2023-02-11T02:56:32.387Z,3.45
2023-02-11T02:57:05.181Z,3.48
2023-02-11T02:57:37.854Z,3.50
2023-02-11T02:58:10.508Z,3.48
2023-02-11T02:58:45.405Z,3.48
2023-02-11T02:59:13.185Z,3.48
2023-02-11T02:59:45.860Z,3.47
2023-02-11T03:00:18.519Z,3.48
2023-02-11T03:00:51.205Z,3.48
2023-02-11T03:01:23.854Z,3.48
2023-02-11T03:01:56.531Z,3.47
2023-02-11T03:02:29.197Z,3.47
2023-02-11T03:03:01.877Z,3.48
2023-02-11T03:03:34.616Z,3.45
2023-02-11T03:04:07.394Z,3.45
2023-02-11T03:04:40.032Z,3.47
2023-02-11T03:05:12.707Z,3.47
2023-02-11T03:05:45.393Z,3.48
2023-02-11T03:06:18.106Z,3.47
2023-02-11T03:06:50.763Z,3.47
2023-02-11T03:07:23.472Z,3.48
2023-02-11T03:07:56.127Z,3.47
2023-02-11T03:08:28.792Z,3.50
2023-02-11T03:09:01.467Z,3.48
2023-02-11T03:09:34.137Z,3.50
2023-02-11T03:10:06.806Z,3.50
2023-02-11T03:10:39.482Z,3.51
2023-02-11T03:11:12.153Z,3.48
2023-02-11T03:11:44.807Z,3.50
2023-02-11T03:12:17.481Z,3.50
2023-02-11T03:12:50.138Z,3.48
2023-02-11T03:13:22.808Z,3.50
2023-02-11T03:13:55.475Z,3.48
2023-02-11T03:14:28.147Z,3.48
2023-02-11T03:15:00.837Z,3.51
2023-02-11T03:15:33.492Z,3.48
2023-02-11T03:16:06.250Z,3.50
2023-02-11T03:16:39.374Z,3.50
2023-02-11T03:17:12.094Z,3.48
2023-02-11T03:17:44.761Z,3.48
2023-02-11T03:18:17.468Z,3.47
2023-02-11T03:18:50.133Z,3.48
2023-02-11T03:19:22.798Z,3.48
2023-02-11T03:19:55.488Z,3.48
2023-02-11T03:20:28.154Z,3.47
2023-02-11T03:21:00.814Z,3.48
2023-02-11T03:21:33.487Z,3.48
2023-02-11T03:22:06.151Z,3.48
2023-02-11T03:22:38.837Z,3.48
2023-02-11T03:23:11.495Z,3.47
2023-02-11T03:23:44.159Z,3.47
2023-02-11T03:24:16.840Z,3.48
2023-02-11T03:24:49.515Z,3.48
2023-02-11T03:25:22.203Z,3.48
2023-02-11T03:25:54.893Z,3.50
2023-02-11T03:26:27.601Z,3.48
2023-02-11T03:27:00.247Z,3.48
2023-02-11T03:27:33.156Z,3.48
2023-02-11T03:28:05.890Z,3.48
2023-02-11T03:28:38.606Z,3.48
2023-02-11T03:29:11.301Z,3.48
2023-02-11T03:29:43.973Z,3.47
2023-02-11T03:30:16.663Z,3.48
2023-02-11T03:30:49.367Z,3.48
2023-02-11T03:31:22.239Z,3.47
2023-02-11T03:31:54.996Z,3.48
2023-02-11T03:32:27.648Z,3.48
2023-02-11T03:33:00.315Z,3.48
2023-02-11T03:33:32.979Z,3.50
2023-02-11T03:34:05.665Z,3.48
2023-02-11T03:34:38.326Z,3.50
2023-02-11T03:35:11.011Z,3.50
2023-02-11T03:35:43.667Z,3.50
2023-02-11T03:36:16.347Z,3.48
2023-02-11T03:36:49.008Z,3.48
2023-02-11T03:37:21.697Z,3.48
2023-02-11T03:37:54.585Z,3.48
2023-02-11T03:38:27.239Z,3.50
2023-02-11T03:38:59.948Z,3.50
2023-02-11T03:39:32.613Z,3.50
2023-02-11T03:40:05.289Z,3.50
2023-02-11T03:40:38.017Z,3.48
2023-02-11T03:41:10.676Z,3.50
2023-02-11T03:41:43.356Z,3.50
2023-02-11T03:42:16.019Z,3.48
2023-02-11T03:42:48.692Z,3.48
2023-02-11T03:43:21.362Z,3.50
2023-02-11T03:43:54.051Z,3.50
2023-02-11T03:44:26.729Z,3.50
2023-02-11T03:44:59.407Z,3.48
2023-02-11T03:45:32.152Z,3.48
2023-02-11T03:46:04.872Z,3.48
2023-02-11T03:46:37.577Z,3.48
2023-02-11T03:47:10.245Z,3.50
2023-02-11T03:47:42.913Z,3.50
2023-02-11T03:48:15.583Z,3.51
2023-02-11T03:48:48.252Z,3.51
2023-02-11T03:49:20.906Z,3.51
2023-02-11T03:49:53.584Z,3.51
2023-02-11T03:50:26.244Z,3.51
2023-02-11T03:50:58.933Z,3.51
2023-02-11T03:51:31.592Z,3.51
2023-02-11T03:52:04.264Z,3.52
2023-02-11T03:52:36.934Z,3.52
2023-02-11T03:53:09.629Z,3.51
2023-02-11T03:53:42.297Z,3.52
2023-02-11T03:54:14.950Z,3.51
2023-02-11T03:54:47.622Z,3.50
2023-02-11T03:55:20.290Z,3.52
2023-02-11T03:55:53.128Z,3.51
2023-02-11T03:56:25.897Z,3.52
2023-02-11T03:56:58.573Z,3.52
2023-02-11T03:57:31.240Z,3.52
2023-02-11T03:58:03.937Z,3.51
2023-02-11T03:58:36.595Z,3.50
2023-02-11T03:59:09.269Z,3.51
2023-02-11T03:59:41.936Z,3.50
2023-02-11T04:00:14.615Z,3.52
2023-02-11T04:00:47.360Z,3.51
2023-02-11T04:01:20.090Z,3.51
2023-02-11T04:01:52.787Z,3.52
2023-02-11T04:02:25.436Z,3.52
2023-02-11T04:02:58.154Z,3.52
2023-02-11T04:03:30.839Z,3.52
2023-02-11T04:04:03.514Z,3.54
2023-02-11T04:04:36.187Z,3.52
2023-02-11T04:05:08.859Z,3.52
2023-02-11T04:05:41.528Z,3.55
2023-02-11T04:06:14.234Z,3.55
2023-02-11T04:06:46.895Z,3.54
2023-02-11T04:07:19.572Z,3.52
2023-02-11T04:07:52.249Z,3.52
2023-02-11T04:08:24.936Z,3.54
2023-02-11T04:08:57.584Z,3.55
2023-02-11T04:09:30.250Z,3.54
2023-02-11T04:10:02.926Z,3.54
2023-02-11T04:10:35.592Z,3.54
2023-02-11T04:11:08.274Z,3.55
2023-02-11T04:11:40.939Z,3.55
2023-02-11T04:12:13.607Z,3.54
2023-02-11T04:12:46.273Z,3.54
2023-02-11T04:13:18.950Z,3.55
2023-02-11T04:13:51.612Z,3.55
2023-02-11T04:14:24.296Z,3.57
2023-02-11T04:14:57.016Z,3.58
2023-02-11T04:15:29.684Z,3.55
2023-02-11T04:16:02.413Z,3.58
2023-02-11T04:16:35.116Z,3.55
2023-02-11T04:17:07.854Z,3.57
2023-02-11T04:17:40.512Z,3.57
2023-02-11T04:18:13.177Z,3.57
2023-02-11T04:18:45.846Z,3.57
2023-02-11T04:19:18.515Z,3.58
2023-02-11T04:19:51.192Z,3.58
2023-02-11T04:20:23.870Z,3.60
2023-02-11T04:20:56.561Z,3.60
2023-02-11T04:21:29.246Z,3.58
2023-02-11T04:22:01.907Z,3.60
2023-02-11T04:22:34.583Z,3.60
2023-02-11T04:23:07.255Z,3.57
2023-02-11T04:23:39.998Z,3.57
2023-02-11T04:24:12.662Z,3.58
2023-02-11T04:24:45.320Z,3.60
2023-02-11T04:25:18.170Z,3.60
2023-02-11T04:25:51.315Z,3.60
2023-02-11T04:26:17.567Z,3.60
2023-02-11T04:26:50.240Z,3.61
2023-02-11T04:27:22.903Z,3.60
2023-02-11T04:27:55.656Z,3.61
2023-02-11T04:28:28.367Z,3.61
2023-02-11T04:29:01.028Z,3.61
2023-02-11T04:29:33.697Z,3.60
2023-02-11T04:30:06.372Z,3.61
2023-02-11T04:30:39.038Z,3.61
2023-02-11T04:31:11.726Z,3.60
2023-02-11T04:31:44.459Z,3.61
2023-02-11T04:32:17.239Z,3.61
2023-02-11T04:32:49.885Z,3.61
2023-02-11T04:33:22.549Z,3.61
2023-02-11T04:33:55.226Z,3.60
2023-02-11T04:34:27.889Z,3.62
2023-02-11T04:35:00.577Z,3.61
2023-02-11T04:35:33.234Z,3.61
2023-02-11T04:36:05.907Z,3.61
2023-02-11T04:36:38.584Z,3.61
2023-02-11T04:37:11.410Z,3.65
2023-02-11T04:37:44.048Z,3.65
2023-02-11T04:38:16.711Z,3.62
2023-02-11T04:38:49.414Z,3.65
2023-02-11T04:39:22.060Z,3.62
2023-02-11T04:39:54.729Z,3.65
2023-02-11T04:40:27.407Z,3.65
2023-02-11T04:41:00.122Z,3.65
2023-02-11T04:41:32.762Z,3.65
2023-02-11T04:42:05.443Z,3.66
2023-02-11T04:42:38.144Z,3.66
2023-02-11T04:43:10.828Z,3.66
2023-02-11T04:43:43.512Z,3.65
2023-02-11T04:44:10.895Z,3.65
2023-02-11T04:44:38.713Z,3.68
2023-02-11T04:45:08.716Z,3.66
2023-02-11T04:45:36.356Z,3.66
2023-02-11T04:46:00.279Z,3.65
2023-02-11T04:46:29.242Z,3.66
2023-02-11T04:47:01.949Z,3.66
2023-02-11T04:47:34.600Z,3.66
2023-02-11T04:48:05.693Z,3.66
2023-02-11T04:48:32.621Z,3.68
2023-02-11T04:49:05.279Z,3.66
2023-02-11T04:49:32.183Z,3.68
2023-02-11T04:50:06.760Z,3.66
2023-02-11T04:50:40.725Z,3.68
2023-02-11T04:51:08.483Z,3.66
2023-02-11T04:51:35.367Z,3.68
2023-02-11T04:52:08.058Z,3.68
2023-02-11T04:52:34.966Z,3.68
2023-02-11T04:53:07.653Z,3.68
2023-02-11T04:53:39.211Z,3.66
2023-02-11T04:54:06.436Z,3.68
2023-02-11T04:54:36.841Z,3.68
2023-02-11T04:55:09.532Z,3.69
2023-02-11T04:55:39.475Z,3.66
2023-02-11T04:56:06.224Z,3.66
2023-02-11T04:56:35.385Z,3.69
2023-02-11T04:57:08.052Z,3.66
2023-02-11T04:57:40.710Z,3.69
2023-02-11T04:58:13.383Z,3.68
2023-02-11T04:58:46.069Z,3.66
2023-02-11T04:59:18.743Z,3.68
2023-02-11T04:59:51.404Z,3.66
2023-02-11T05:00:24.086Z,3.66
2023-02-11T05:00:56.795Z,3.66
2023-02-11T05:01:29.600Z,3.65
2023-02-11T05:02:02.248Z,3.65
2023-02-11T05:02:34.922Z,3.65
2023-02-11T05:03:07.598Z,3.66
2023-02-11T05:03:40.270Z,3.65
2023-02-11T05:04:12.996Z,3.65
2023-02-11T05:04:45.673Z,3.62
2023-02-11T05:05:18.342Z,3.65
2023-02-11T05:05:51.309Z,3.65
2023-02-11T05:06:17.625Z,3.65
2023-02-11T05:06:50.308Z,3.65
2023-02-11T05:07:22.982Z,3.65
2023-02-11T05:07:55.649Z,3.66
2023-02-11T05:08:28.318Z,3.65
2023-02-11T05:09:00.980Z,3.65
2023-02-11T05:09:33.674Z,3.65
2023-02-11T05:10:06.321Z,3.66
2023-02-11T05:10:38.993Z,3.65
2023-02-11T05:11:11.675Z,3.66
2023-02-11T05:11:44.349Z,3.66
2023-02-11T05:12:17.009Z,3.66
2023-02-11T05:12:49.677Z,3.69
2023-02-11T05:13:22.342Z,3.66
2023-02-11T05:13:55.024Z,3.65
2023-02-11T05:14:27.677Z,3.65
2023-02-11T05:15:00.342Z,3.62
2023-02-11T05:15:33.008Z,3.62
2023-02-11T05:16:05.694Z,3.66
2023-02-11T05:16:38.436Z,3.65
2023-02-11T05:17:11.110Z,3.62
2023-02-11T05:17:43.784Z,3.62
2023-02-11T05:18:16.489Z,3.62
2023-02-11T05:18:51.465Z,3.65
2023-02-11T05:19:18.645Z,3.65
2023-02-11T05:19:51.310Z,3.65
2023-02-11T05:20:24.021Z,3.65
2023-02-11T05:20:52.862Z,3.66
2023-02-11T05:21:24.970Z,3.65
2023-02-11T05:22:02.518Z,3.66
2023-02-11T05:22:27.721Z,3.65
2023-02-11T05:22:54.726Z,3.65
2023-02-11T05:23:26.801Z,3.65
2023-02-11T05:23:58.923Z,3.65
2023-02-11T05:24:25.078Z,3.68
2023-02-11T05:24:57.771Z,3.66
2023-02-11T05:25:30.430Z,3.66
2023-02-11T05:25:57.295Z,3.66
2023-02-11T05:26:30.001Z,3.68
2023-02-11T05:26:56.852Z,3.68
2023-02-11T05:27:23.885Z,3.69
2023-02-11T05:27:50.783Z,3.68
2023-02-11T05:28:23.484Z,3.68
2023-02-11T05:28:56.160Z,3.68
2023-02-11T05:29:28.843Z,3.68
2023-02-11T05:30:01.524Z,3.66
2023-02-11T05:30:35.302Z,3.68
2023-02-11T05:31:01.711Z,3.68
2023-02-11T05:31:29.768Z,3.68
2023-02-11T05:32:02.461Z,3.66
2023-02-11T05:32:35.138Z,3.68
2023-02-11T05:33:07.226Z,3.68
2023-02-11T05:33:33.413Z,3.66
2023-02-11T05:34:04.481Z,3.69
2023-02-11T05:34:37.158Z,3.70
2023-02-11T05:35:09.828Z,3.69
2023-02-11T05:35:42.525Z,3.69
2023-02-11T05:36:15.208Z,3.69
2023-02-11T05:36:47.883Z,3.68
2023-02-11T05:37:20.593Z,3.70
2023-02-11T05:37:53.309Z,3.68
2023-02-11T05:38:25.975Z,3.70
2023-02-11T05:38:58.650Z,3.69
2023-02-11T05:39:31.316Z,3.69
2023-02-11T05:40:04.015Z,3.70
2023-02-11T05:40:36.668Z,3.72
2023-02-11T05:41:07.743Z,3.69
2023-02-11T05:41:40.446Z,3.69
2023-02-11T05:42:13.105Z,3.70
2023-02-11T05:42:45.779Z,3.70
2023-02-11T05:43:18.450Z,3.69
2023-02-11T05:43:51.109Z,3.72
2023-02-11T05:44:23.786Z,3.70
2023-02-11T05:44:56.454Z,3.70
2023-02-11T05:45:29.130Z,3.72
2023-02-11T05:46:01.853Z,3.70
2023-02-11T05:46:34.587Z,3.70
2023-02-11T05:47:07.248Z,3.72
2023-02-11T05:47:39.926Z,3.70
2023-02-11T05:48:12.601Z,3.70
2023-02-11T05:48:45.281Z,3.73
2023-02-11T05:49:16.360Z,3.72
2023-02-11T05:49:49.037Z,3.72
2023-02-11T05:50:21.701Z,3.72
2023-02-11T05:50:54.368Z,3.73
2023-02-11T05:51:27.076Z,3.72
2023-02-11T05:51:59.756Z,3.72
2023-02-11T05:52:32.434Z,3.73
2023-02-11T05:53:05.389Z,3.72
2023-02-11T05:53:38.176Z,3.75
2023-02-11T05:54:10.852Z,3.73
2023-02-11T05:54:43.511Z,3.72
2023-02-11T05:55:16.213Z,3.73
2023-02-11T05:55:49.236Z,3.73
2023-02-11T05:56:16.351Z,3.73
2023-02-11T05:58:06.674Z,3.73
2023-02-11T05:58:39.558Z,3.73
2023-02-11T05:59:12.552Z,3.73
2023-02-11T05:59:39.694Z,3.75
2023-02-11T06:00:06.652Z,3.73
2023-02-11T06:00:39.350Z,3.73
2023-02-11T06:01:07.043Z,3.75
2023-02-11T06:01:36.363Z,3.76
2023-02-11T06:02:12.118Z,3.75
2023-02-11T06:02:39.103Z,3.75
2023-02-11T06:03:05.997Z,3.73
2023-02-11T06:03:32.805Z,3.76
2023-02-11T06:04:05.467Z,3.76
2023-02-11T06:04:38.151Z,3.76
2023-02-11T06:05:10.818Z,3.75
2023-02-11T06:05:44.054Z,3.76
2023-02-11T06:06:10.242Z,3.76
2023-02-11T06:06:42.914Z,3.78
2023-02-11T06:07:16.067Z,3.76
2023-02-11T06:07:42.240Z,3.76
2023-02-11T06:08:14.920Z,3.78
2023-02-11T06:08:42.146Z,3.76
2023-02-11T06:09:14.832Z,3.79
2023-02-11T06:09:47.494Z,3.78
2023-02-11T06:10:20.186Z,3.76
2023-02-11T06:10:52.829Z,3.78
2023-02-11T06:11:25.500Z,3.78
2023-02-11T06:11:58.203Z,3.78
2023-02-11T06:12:30.860Z,3.79
2023-02-11T06:13:03.526Z,3.79
2023-02-11T06:13:36.232Z,3.79
2023-02-11T06:14:08.876Z,3.78
2023-02-11T06:14:41.560Z,3.79
2023-02-11T06:15:14.282Z,3.79
2023-02-11T06:15:47.028Z,3.83
2023-02-11T06:16:19.777Z,3.80
2023-02-11T06:16:52.469Z,3.80
2023-02-11T06:17:25.173Z,3.80
2023-02-11T06:17:57.809Z,3.83
2023-02-11T06:18:30.478Z,3.83
2023-02-11T06:19:03.145Z,3.84
2023-02-11T06:19:35.824Z,3.84
2023-02-11T06:20:08.473Z,3.84
2023-02-11T06:20:41.137Z,3.84
2023-02-11T06:21:13.810Z,3.80
2023-02-11T06:21:46.468Z,3.80
2023-02-11T06:22:19.156Z,3.83
2023-02-11T06:22:51.817Z,3.84
2023-02-11T06:23:24.520Z,3.83
2023-02-11T06:23:57.150Z,3.84
2023-02-11T06:24:51.353Z,3.83
2023-02-11T06:25:02.456Z,3.86
2023-02-11T06:25:28.715Z,3.84
2023-02-11T06:26:01.356Z,3.84
2023-02-11T06:26:34.037Z,3.84
2023-02-11T06:27:06.707Z,3.87
2023-02-11T06:27:39.405Z,3.86
2023-02-11T06:28:12.188Z,3.86
2023-02-11T06:28:44.955Z,3.87
2023-02-11T06:29:17.689Z,3.86
2023-02-11T06:29:50.392Z,3.84
2023-02-11T06:30:23.068Z,3.87
2023-02-11T06:30:55.773Z,3.86
2023-02-11T06:31:28.548Z,3.88
2023-02-11T06:32:01.351Z,3.87
2023-02-11T06:32:46.141Z,3.90
2023-02-11T06:33:06.117Z,3.90
2023-02-11T06:33:32.281Z,3.90
2023-02-11T06:34:04.953Z,3.90
2023-02-11T06:34:37.621Z,3.91
2023-02-11T06:35:12.081Z,3.91
2023-02-11T06:35:38.602Z,3.93
2023-02-11T06:36:11.265Z,3.93
2023-02-11T06:36:43.940Z,3.93
2023-02-11T06:37:16.610Z,3.93
2023-02-11T06:37:49.317Z,3.93
2023-02-11T06:38:21.982Z,3.94
2023-02-11T06:38:54.651Z,3.93
2023-02-11T06:39:27.321Z,3.96
2023-02-11T06:39:59.989Z,3.96
2023-02-11T06:40:32.695Z,3.94
2023-02-11T06:41:05.329Z,3.96
2023-02-11T06:41:37.995Z,3.97
2023-02-11T06:42:10.735Z,3.97
2023-02-11T06:42:43.374Z,3.98
2023-02-11T06:43:16.028Z,3.96
2023-02-11T06:43:48.736Z,3.97
2023-02-11T06:44:21.382Z,3.96
2023-02-11T06:44:54.057Z,3.97
2023-02-11T06:45:26.711Z,3.97
2023-02-11T06:45:59.397Z,3.98
2023-02-11T06:46:32.212Z,3.97
2023-02-11T06:47:04.876Z,3.97
2023-02-11T06:47:37.588Z,3.98
2023-02-11T06:48:10.234Z,4.02
2023-02-11T06:48:44.859Z,3.98
2023-02-11T06:49:11.200Z,4.00
2023-02-11T06:49:43.879Z,4.00
2023-02-11T06:50:16.572Z,4.02
2023-02-11T06:50:49.233Z,4.02
2023-02-11T06:51:21.937Z,4.00
2023-02-11T06:51:54.600Z,4.02
2023-02-11T06:52:27.302Z,4.04
2023-02-11T06:52:59.978Z,4.04
2023-02-11T06:53:32.648Z,4.04
2023-02-11T06:54:05.332Z,4.04
2023-02-11T06:54:38.012Z,4.04
2023-02-11T06:55:10.678Z,4.05
2023-02-11T06:55:43.378Z,4.05
2023-02-11T06:56:16.020Z,4.08
2023-02-11T06:56:48.700Z,4.08
2023-02-11T06:57:21.361Z,4.08
2023-02-11T06:57:54.048Z,4.08
2023-02-11T06:58:26.733Z,4.08
2023-02-11T06:58:59.399Z,4.08
2023-02-11T06:59:32.065Z,4.08
2023-02-11T07:00:05.831Z,4.09
2023-02-11T07:00:32.104Z,4.12
2023-02-11T07:01:04.768Z,4.11
2023-02-11T07:01:37.497Z,4.12
2023-02-11T07:02:10.281Z,4.11
2023-02-11T07:02:41.298Z,4.14
2023-02-11T07:03:14.070Z,4.11
2023-02-11T07:03:46.758Z,4.14
2023-02-11T07:04:19.447Z,4.14
2023-02-11T07:04:52.097Z,4.14
2023-02-11T07:05:24.769Z,4.14
2023-02-11T07:05:57.446Z,4.15
2023-02-11T07:06:30.106Z,4.16
2023-02-11T07:07:02.777Z,4.18
2023-02-11T07:07:34.432Z,4.20
2023-02-11T07:08:00.657Z,4.20
2023-02-11T07:08:33.357Z,4.22
2023-02-11T07:09:04.415Z,4.20
2023-02-11T07:09:37.085Z,4.20
2023-02-11T07:10:09.748Z,4.22